Time;durP1;ratioP1;P1;durP2;ratioP2;P2;SDS_P1;SDS_P2;PMS_P1;PMS_P2;Temp;Humidity;BMP_temperature;BMP_pressure;BME280_temperature;BME280_humidity;BME280_pressure;Samples;Min_cycle;Max_cycle;Signal;HPM_P1;HPM_P2
2021/10/20 04:39:33;;;;;;;5.20;2.47;;;;;;;10.76;60.74;97355.06;5072834;27;20404;-77
2021/10/20 04:41:58;;;;;;;3.20;1.80;;;;;;;10.82;60.23;97355.91;5055432;28;20033;-77
2021/10/20 04:44:24;;;;;;;5.22;1.95;;;;;;;10.87;60.11;97356.78;5059362;28;20024;-77
2021/10/20 04:46:49;;;;;;;5.25;2.35;;;;;;;10.86;60.06;97355.16;5058560;28;20106;-77
2021/10/20 04:49:14;;;;;;;3.55;1.92;;;;;;;10.89;59.70;97353.81;5051671;28;20424;-77
2021/10/20 04:51:40;;;;;;;5.72;2.03;;;;;;;10.75;60.56;97346.09;5057845;28;20025;-77
2021/10/20 04:54:06;;;;;;;4.78;2.40;;;;;;;10.91;59.84;97346.28;5055502;28;20025;-77
2021/10/20 04:56:31;;;;;;;3.78;2.00;;;;;;;10.87;59.75;97337.81;5065830;28;20558;-77
2021/10/20 04:58:57;;;;;;;4.18;2.00;;;;;;;10.93;59.55;97330.56;5062700;28;20073;-77
2021/10/20 05:01:23;;;;;;;4.20;1.88;;;;;;;11.01;59.02;97340.13;5060057;28;20398;-78
2021/10/20 05:03:48;;;;;;;3.13;1.52;;;;;;;11.13;58.03;97329.94;5063967;28;20123;-77
2021/10/20 05:06:13;;;;;;;3.90;1.70;;;;;;;11.19;58.15;97323.50;5059224;28;20469;-77
2021/10/20 05:08:39;;;;;;;4.50;2.17;;;;;;;11.15;58.19;97324.28;5060914;28;20028;-77
2021/10/20 05:11:04;;;;;;;3.53;1.60;;;;;;;11.22;57.92;97313.22;5067852;28;20405;-77
2021/10/20 05:13:29;;;;;;;4.07;1.95;;;;;;;11.14;58.36;97322.66;5053769;28;20401;-77
2021/10/20 05:15:55;;;;;;;5.05;2.20;;;;;;;11.19;57.99;97326.22;5053975;28;20045;-76
2021/10/20 05:18:20;;;;;;;3.70;1.98;;;;;;;11.14;58.57;97322.66;5053112;28;20120;-76
2021/10/20 05:20:47;;;;;;;3.35;1.88;;;;;;;11.03;58.77;97321.72;5063886;22;20162;-82
2021/10/20 05:23:12;;;;;;;4.57;2.35;;;;;;;10.87;59.07;97318.84;5041920;28;20027;-81
2021/10/20 05:25:38;;;;;;;4.57;1.92;;;;;;;10.83;59.34;97325.06;5045562;28;20029;-81
2021/10/20 05:28:05;;;;;;;4.03;1.73;;;;;;;10.98;58.41;97316.28;5028287;28;20125;-82
2021/10/20 05:30:30;;;;;;;5.45;2.20;;;;;;;10.97;58.69;97320.84;5041074;28;20072;-81
2021/10/20 05:32:56;;;;;;;2.60;1.40;;;;;;;11.02;58.10;97323.63;5027748;28;20494;-82
2021/10/20 05:35:21;;;;;;;5.43;2.00;;;;;;;10.98;58.50;97317.06;5000257;28;20119;-81
2021/10/20 05:37:48;;;;;;;12.32;2.90;;;;;;;10.52;61.55;97320.09;5031546;28;20029;-81
2021/10/20 05:40:13;;;;;;;3.38;1.95;;;;;;;10.12;63.79;97320.13;5027849;28;20017;-83
2021/10/20 05:42:38;;;;;;;4.78;2.00;;;;;;;10.15;63.37;97321.53;5014304;28;20025;-82
2021/10/20 05:45:04;;;;;;;4.68;2.45;;;;;;;10.34;62.67;97313.09;5029807;28;20261;-83
2021/10/20 05:47:30;;;;;;;5.85;2.15;;;;;;;10.33;62.01;97311.47;5033727;28;20025;-83
2021/10/20 05:49:55;;;;;;;4.78;2.78;;;;;;;10.06;63.23;97309.50;5024217;28;20115;-81
2021/10/20 05:52:20;;;;;;;5.97;2.28;;;;;;;9.97;62.94;97301.81;5013631;28;20061;-83
2021/10/20 05:54:46;;;;;;;4.28;1.92;;;;;;;10.02;62.55;97311.88;5005878;28;20029;-83
2021/10/20 05:57:11;;;;;;;4.65;2.10;;;;;;;10.28;62.31;97301.38;5020904;28;20494;-84
2021/10/20 05:59:37;;;;;;;4.28;2.50;;;;;;;10.30;61.82;97312.78;5011502;28;20044;-76
2021/10/20 06:02:02;;;;;;;8.95;5.22;;;;;;;10.17;63.28;97318.56;5003587;28;20034;-82
2021/10/20 06:04:27;;;;;;;7.35;3.60;;;;;;;9.78;65.00;97322.09;4989684;28;20036;-82
2021/10/20 06:06:53;;;;;;;5.78;3.13;;;;;;;9.42;66.40;97323.19;5006760;28;20030;-83
2021/10/20 06:09:18;;;;;;;4.57;2.67;;;;;;;9.18;67.83;97320.63;4998445;28;20383;-81
2021/10/20 06:11:44;;;;;;;4.50;2.33;;;;;;;9.22;66.29;97320.97;5012712;28;20135;-80
2021/10/20 06:14:09;;;;;;;6.70;2.50;;;;;;;9.21;66.71;97330.13;5012923;28;20036;-81
2021/10/20 06:16:38;;;;;;;8.82;3.05;;;;;;;9.15;67.44;97331.94;5006630;28;20204;-81
2021/10/20 06:19:04;;;;;;;6.05;3.33;;;;;;;8.94;68.21;97328.88;4990493;28;20022;-81
2021/10/20 06:21:30;;;;;;;5.07;3.10;;;;;;;8.99;67.97;97336.22;5007211;28;20053;-81
2021/10/20 06:23:55;;;;;;;15.90;6.68;;;;;;;9.28;66.18;97332.69;5006243;28;20518;-81
2021/10/20 06:26:21;;;;;;;25.13;17.10;;;;;;;9.36;66.27;97332.25;5007885;28;20034;-81
2021/10/20 06:28:46;;;;;;;5.53;2.50;;;;;;;9.31;66.39;97326.78;5008196;28;20026;-81
2021/10/20 06:31:11;;;;;;;7.45;2.50;;;;;;;9.20;68.09;97328.47;4995062;28;20037;-81
2021/10/20 06:33:37;;;;;;;4.63;2.50;;;;;;;9.11;68.96;97328.06;5009444;28;20037;-81
2021/10/20 06:36:03;;;;;;;4.65;2.55;;;;;;;9.00;68.77;97318.16;5010224;28;20025;-81
2021/10/20 06:38:28;;;;;;;5.97;2.90;;;;;;;8.89;69.52;97325.25;5008354;28;20077;-81
2021/10/20 06:40:53;;;;;;;6.07;2.83;;;;;;;8.94;69.27;97315.34;5008754;28;20052;-81
2021/10/20 06:43:19;;;;;;;5.22;2.58;;;;;;;9.33;68.32;97320.06;5006512;28;20037;-81
2021/10/20 06:45:44;;;;;;;6.80;2.88;;;;;;;9.27;69.00;97317.50;5018309;28;20518;-81
2021/10/20 06:48:10;;;;;;;4.88;2.58;;;;;;;9.14;68.84;97310.56;5008654;28;20060;-81
2021/10/20 06:50:35;;;;;;;5.10;3.05;;;;;;;9.31;67.91;97305.97;4986984;28;20628;-81
2021/10/20 06:53:01;;;;;;;9.35;2.50;;;;;;;9.74;65.81;97308.25;5001787;28;20577;-81
2021/10/20 06:55:27;;;;;;;4.85;2.38;;;;;;;10.12;64.82;97301.19;5007237;28;20041;-81
2021/10/20 06:57:52;;;;;;;6.78;2.60;;;;;;;10.28;64.30;97295.97;5007369;28;20116;-81
2021/10/20 07:00:18;;;;;;;5.18;2.00;;;;;;;10.45;63.98;97297.81;5017610;28;20029;-81
2021/10/20 07:02:44;;;;;;;6.20;2.55;;;;;;;10.82;62.45;97285.47;4984975;28;20018;-81
2021/10/20 07:05:09;;;;;;;4.25;2.35;;;;;;;11.10;61.62;97294.44;5016151;28;20029;-81
2021/10/20 07:07:35;;;;;;;3.78;2.13;;;;;;;11.26;61.04;97295.38;5008447;28;20104;-81
2021/10/20 07:10:01;;;;;;;7.28;2.33;;;;;;;11.32;60.82;97297.88;5009024;28;20218;-82
2021/10/20 07:12:30;;;;;;;4.32;2.33;;;;;;;11.40;60.86;97295.75;5016345;28;20030;-81
2021/10/20 07:14:56;;;;;;;4.25;2.38;;;;;;;11.45;60.54;97291.19;5011658;28;20032;-82
2021/10/20 07:17:21;;;;;;;6.10;3.10;;;;;;;11.61;60.17;97291.28;5013912;28;20038;-81
2021/10/20 07:19:46;;;;;;;3.92;2.17;;;;;;;11.84;59.78;97297.41;5019011;28;20479;-81
2021/10/20 07:22:12;;;;;;;3.60;1.65;;;;;;;11.94;59.26;97292.03;5006147;28;20026;-81
2021/10/20 07:24:37;;;;;;;3.75;1.92;;;;;;;12.16;58.82;97296.53;5005796;28;20471;-81
2021/10/20 07:27:04;;;;;;;3.78;1.73;;;;;;;12.17;59.07;97300.88;5003788;28;20049;-82
2021/10/20 07:29:29;;;;;;;3.58;1.83;;;;;;;12.26;58.88;97292.22;4995758;28;20384;-81
2021/10/20 07:31:55;;;;;;;3.75;2.00;;;;;;;12.51;58.39;97285.25;4996188;28;20252;-82
2021/10/20 07:34:20;;;;;;;4.32;2.10;;;;;;;12.74;58.60;97283.97;4993181;28;20060;-81
2021/10/20 07:36:45;;;;;;;3.65;1.90;;;;;;;12.96;58.66;97272.88;5009668;28;20170;-82
2021/10/20 07:39:14;;;;;;;4.22;1.85;;;;;;;13.17;58.00;97272.91;5007830;28;20030;-81
2021/10/20 07:41:40;;;;;;;4.65;2.00;;;;;;;13.46;57.48;97272.34;4991150;28;20076;-82
2021/10/20 07:44:06;;;;;;;4.40;2.05;;;;;;;13.67;57.06;97268.81;5006137;28;20172;-81
2021/10/20 07:46:32;;;;;;;4.57;1.75;;;;;;;13.82;57.45;97265.25;5018357;28;20072;-82
2021/10/20 07:48:57;;;;;;;5.32;2.15;;;;;;;14.09;55.77;97259.44;5012042;28;20030;-82
2021/10/20 07:51:23;;;;;;;5.03;2.08;;;;;;;14.41;54.78;97247.31;5010290;28;20057;-82
2021/10/20 07:53:48;;;;;;;5.05;2.63;;;;;;;14.60;53.81;97243.16;5011047;28;20056;-82
2021/10/20 07:56:14;;;;;;;5.38;2.72;;;;;;;14.68;54.52;97243.34;5011944;28;20092;-82
2021/10/20 07:58:39;;;;;;;4.45;2.00;;;;;;;14.83;52.89;97236.22;5012878;28;20055;-82
2021/10/20 08:01:04;;;;;;;3.72;1.80;;;;;;;15.16;52.20;97232.97;5009166;28;20179;-82
2021/10/20 08:03:30;;;;;;;7.68;3.70;;;;;;;15.50;51.63;97231.28;4990648;28;20084;-82
2021/10/20 08:05:55;;;;;;;8.52;4.70;;;;;;;15.96;51.60;97227.31;5006136;28;20410;-82
2021/10/20 08:08:21;;;;;;;7.20;2.60;;;;;;;16.20;51.52;97218.28;5020331;28;20042;-83
2021/10/20 08:10:46;;;;;;;3.35;2.00;;;;;;;16.37;52.21;97223.25;5011211;28;20037;-83
2021/10/20 08:13:12;;;;;;;4.80;2.33;;;;;;;16.46;48.66;97224.22;4998919;28;20575;-82
2021/10/20 08:15:39;;;;;;;26.80;16.98;;;;;;;16.51;48.47;97226.88;5009417;28;20033;-82
2021/10/20 08:18:05;;;;;;;6.80;2.33;;;;;;;16.11;49.12;97234.50;5008151;28;20402;-82
2021/10/20 08:20:32;;;;;;;3.95;1.83;;;;;;;16.24;48.82;97231.06;5008035;28;20053;-81
2021/10/20 08:22:59;;;;;;;3.83;2.10;;;;;;;16.37;48.76;97234.19;5005256;28;20025;-82
2021/10/20 08:25:25;;;;;;;3.65;2.00;;;;;;;16.71;48.07;97235.09;5006220;28;20030;-82
2021/10/20 08:27:50;;;;;;;7.03;2.50;;;;;;;16.35;48.60;97237.22;4994792;28;20371;-81
2021/10/20 08:30:17;;;;;;;4.35;2.20;;;;;;;16.16;49.75;97241.81;4975959;28;20037;-81
2021/10/20 08:32:46;;;;;;;42.33;25.33;;;;;;;16.06;49.75;97237.28;4994290;28;20183;-81
2021/10/20 08:35:15;;;;;;;6.10;2.50;;;;;;;16.09;51.04;97231.25;5005953;28;20037;-82
2021/10/20 08:37:45;;;;;;;6.25;2.47;;;;;;;16.03;51.02;97235.94;5008369;28;20033;-82
2021/10/20 08:40:12;;;;;;;5.30;2.25;;;;;;;15.92;50.98;97240.69;4990747;28;20088;-81
2021/10/20 08:42:42;;;;;;;4.75;2.10;;;;;;;16.20;50.83;97234.66;4990147;28;20040;-81
2021/10/20 08:45:08;;;;;;;5.82;2.17;;;;;;;16.20;50.66;97215.53;5003778;28;20088;-82
2021/10/20 08:47:34;;;;;;;5.60;2.38;;;;;;;16.29;50.62;97199.31;5002308;28;20030;-82
2021/10/20 08:50:07;;;;;;;3.83;2.10;;;;;;;16.38;50.36;97195.66;5004902;28;20541;-82
2021/10/20 08:52:33;;;;;;;4.95;2.10;;;;;;;16.77;48.97;97212.84;5005275;28;20117;-81
2021/10/20 08:55:00;;;;;;;5.25;2.33;;;;;;;17.11;49.21;97201.97;4988695;28;20772;-82
2021/10/20 08:57:25;;;;;;;4.53;2.17;;;;;;;17.42;48.11;97187.75;5005450;28;20052;-83
2021/10/20 08:59:51;;;;;;;4.80;2.30;;;;;;;18.15;47.84;97184.47;5004586;28;20487;-82
2021/10/20 09:02:16;;;;;;;4.13;2.15;;;;;;;19.63;46.84;97176.84;5007685;28;20163;-82
2021/10/20 09:04:43;;;;;;;5.13;2.13;;;;;;;19.35;45.39;97170.75;5018507;28;20507;-83
2021/10/20 09:07:15;;;;;;;3.92;1.92;;;;;;;19.45;47.19;97175.13;5007040;28;20102;-83
2021/10/20 09:09:40;;;;;;;3.72;2.03;;;;;;;18.81;46.83;97169.56;4989346;28;20546;-82
2021/10/20 09:12:06;;;;;;;3.67;2.28;;;;;;;18.33;48.63;97170.94;5005531;28;20060;-82
2021/10/20 09:14:31;;;;;;;4.45;2.10;;;;;;;18.36;48.27;97167.59;5007840;28;20325;-83
2021/10/20 09:17:01;;;;;;;5.88;2.65;;;;;;;18.38;49.41;97157.09;5005537;28;20057;-82
2021/10/20 09:19:34;;;;;;;4.50;2.10;;;;;;;18.49;48.90;97148.63;4989103;28;20021;-83
2021/10/20 09:22:04;;;;;;;4.20;2.00;;;;;;;18.45;48.21;97142.97;4989540;28;20102;-82
2021/10/20 09:24:35;;;;;;;3.10;1.63;;;;;;;18.67;48.38;97138.63;5006165;28;20026;-82
2021/10/20 09:27:01;;;;;;;;;;;;;;;19.00;47.38;97129.31;5010114;28;20081;-83
2021/10/20 09:29:28;;;;;;;4.18;2.00;;;;;;;18.94;47.23;97123.19;5009220;28;19941;-82
2021/10/20 09:31:55;;;;;;;3.15;1.77;;;;;;;18.89;47.99;97129.59;5007811;28;20029;-82
2021/10/20 09:34:20;;;;;;;8.68;1.98;;;;;;;18.97;48.40;97122.53;4993863;28;20033;-83
2021/10/20 09:36:46;;;;;;;4.13;1.92;;;;;;;19.18;48.21;97124.78;5009714;28;20037;-83
2021/10/20 09:39:13;;;;;;;3.67;1.60;;;;;;;18.94;48.79;97121.22;5008604;28;20074;-82
2021/10/20 09:41:39;;;;;;;3.58;1.90;;;;;;;18.75;49.72;97115.94;5008341;28;20030;-83
2021/10/20 09:44:07;;;;;;;3.13;1.67;;;;;;;19.15;49.46;97114.44;5007861;28;20435;-83
2021/10/20 09:46:35;;;;;;;3.85;1.75;;;;;;;19.83;47.91;97107.94;5008018;28;20598;-82
2021/10/20 09:49:03;;;;;;;3.70;1.90;;;;;;;19.87;47.92;97104.19;5009996;28;20026;-82
2021/10/20 09:51:28;;;;;;;4.82;1.85;;;;;;;19.65;48.27;97104.31;5017338;28;20483;-82
2021/10/20 09:53:54;;;;;;;2.63;1.70;;;;;;;19.57;48.06;97101.22;5009384;28;20064;-82
2021/10/20 09:56:23;;;;;;;7.22;1.77;;;;;;;20.06;47.96;97086.66;5007610;28;20037;-83
2021/10/20 09:58:50;;;;;;;6.50;2.08;;;;;;;20.30;47.14;97101.88;5008060;28;20022;-82
2021/10/20 10:01:27;;;;;;;4.65;1.83;;;;;;;20.00;47.87;97101.66;4989331;28;20030;-82
2021/10/20 10:03:54;;;;;;;10.00;4.28;;;;;;;19.90;47.40;97091.75;4991728;28;20162;-82
2021/10/20 10:06:19;;;;;;;5.05;1.75;;;;;;;19.58;47.97;97091.88;4991039;28;20511;-82
2021/10/20 10:08:45;;;;;;;3.47;1.55;;;;;;;19.69;47.58;97089.63;5007854;28;20487;-82
2021/10/20 10:11:11;;;;;;;3.90;1.73;;;;;;;22.32;42.51;97084.97;5020305;28;20025;-82
2021/10/20 10:13:43;;;;;;;3.53;1.90;;;;;;;20.59;46.40;97103.16;5017195;28;20040;-83
2021/10/20 10:16:09;;;;;;;2.97;1.55;;;;;;;20.08;47.07;97084.38;5015639;28;20029;-81
2021/10/20 10:18:39;;;;;;;4.03;2.15;;;;;;;19.95;47.54;97083.38;4989947;28;20033;-80
2021/10/20 10:21:30;;;;;;;3.90;1.63;;;;;;;19.92;47.43;97099.69;5015920;28;20048;-80
2021/10/20 10:23:57;;;;;;;5.68;1.75;;;;;;;20.96;45.40;97105.56;5006308;28;20033;-80
2021/10/20 10:26:23;;;;;;;7.10;1.70;;;;;;;22.20;42.19;97078.28;4990415;28;20533;-80
2021/10/20 10:29:13;;;;;;;7.93;2.10;;;;;;;20.22;46.93;97088.91;5005619;28;20022;-80
2021/10/20 10:31:43;;;;;;;2.67;1.50;;;;;;;19.94;47.16;97083.72;4997187;28;20033;-82
2021/10/20 10:34:20;;;;;;;3.80;1.27;;;;;;;19.80;47.59;97094.81;5007432;28;20068;-85
2021/10/20 10:36:53;;;;;;;3.55;1.90;;;;;;;20.21;47.51;97087.31;5003007;28;20022;-81
2021/10/20 10:39:19;;;;;;;3.63;1.73;;;;;;;20.72;47.03;97093.13;5004560;28;20053;-81
2021/10/20 10:41:52;;;;;;;3.55;1.85;;;;;;;21.15;46.58;97087.84;5002584;28;20435;-82
2021/10/20 10:44:22;;;;;;;6.13;1.70;;;;;;;22.31;44.34;97086.94;5015041;28;20033;-82
2021/10/20 10:47:15;;;;;;;2.10;1.33;;;;;;;21.82;43.88;97082.72;5015358;28;20079;-81
2021/10/20 10:49:45;;;;;;;3.03;1.30;;;;;;;21.80;44.34;97090.53;5003045;28;20572;-80
2021/10/20 10:52:20;;;;;;;3.63;1.50;;;;;;;21.29;45.21;97074.69;5003969;28;20072;-81
2021/10/20 10:54:53;;;;;;;4.95;2.47;;;;;;;21.48;43.99;97072.69;5005108;28;20029;-81
2021/10/20 10:57:18;;;;;;;3.42;1.58;;;;;;;21.26;44.00;97082.81;5017895;28;20482;-80
2021/10/20 11:00:05;;;;;;;2.47;1.40;;;;;;;21.40;42.30;97071.56;5012903;28;20130;-80
2021/10/20 11:02:49;;;;;;;3.00;1.40;;;;;;;21.84;43.14;97063.09;5005574;28;20600;-81
2021/10/20 11:05:17;;;;;;;3.38;1.52;;;;;;;21.90;43.27;97075.56;5010442;28;20025;-81
2021/10/20 11:07:44;;;;;;;2.17;1.20;;;;;;;22.22;41.79;97066.88;5012611;28;20499;-82
2021/10/20 11:10:10;;;;;;;5.18;1.50;;;;;;;22.39;41.78;97057.66;5010965;28;20033;-82
2021/10/20 11:12:35;;;;;;;2.75;1.23;;;;;;;22.71;40.90;97048.97;5003321;28;20036;-81
2021/10/20 11:15:00;;;;;;;3.50;2.03;;;;;;;22.63;40.99;97052.63;5006802;28;20025;-81
2021/10/20 11:17:26;;;;;;;3.13;1.27;;;;;;;22.60;40.94;97051.34;5015018;28;20518;-78
2021/10/20 11:19:51;;;;;;;2.35;1.42;;;;;;;22.25;41.24;97038.63;4996124;22;20731;-88
2021/10/20 11:22:18;;;;;;;10.82;1.55;;;;;;;22.48;41.21;97027.22;5023898;28;20041;-87
2021/10/20 11:24:46;;;;;;;5.10;1.30;;;;;;;22.22;41.65;97029.09;5033741;28;20028;-87
2021/10/20 11:27:11;;;;;;;4.93;3.47;;;;;;;22.00;42.67;97029.44;5045773;28;20087;-89
2021/10/20 11:29:46;;;;;;;2.40;1.23;;;;;;;21.35;43.01;97047.78;5030786;28;20458;-89
2021/10/20 11:32:15;;;;;;;5.40;2.25;;;;;;;21.69;42.90;97043.25;5025942;28;20029;-89
2021/10/20 11:34:43;;;;;;;3.67;1.63;;;;;;;21.57;43.02;97037.63;5020343;28;20028;-89
2021/10/20 11:37:10;;;;;;;2.55;1.58;;;;;;;21.75;42.70;97046.66;5024316;28;20026;-89
2021/10/20 11:39:36;;;;;;;2.90;1.40;;;;;;;21.39;44.12;97036.91;5024925;28;20053;-88
2021/10/20 11:42:04;;;;;;;5.50;1.95;;;;;;;21.30;44.88;97031.47;5041644;28;20040;-88
2021/10/20 11:44:33;;;;;;;12.00;7.35;;;;;;;21.43;44.37;97016.66;5044180;28;20029;-89
2021/10/20 11:47:20;;;;;;;4.30;1.60;;;;;;;21.15;44.56;97008.03;5041273;28;20502;-89
2021/10/20 11:49:49;;;;;;;3.70;1.77;;;;;;;21.30;45.16;96999.22;5038367;28;20123;-89
2021/10/20 11:52:16;;;;;;;3.05;1.58;;;;;;;21.73;44.98;96992.97;5012928;28;20036;-89
2021/10/20 11:54:41;;;;;;;5.45;1.65;;;;;;;22.44;43.86;96991.25;5034116;28;20136;-89
2021/10/20 11:57:10;;;;;;;3.88;1.52;;;;;;;22.54;42.42;96981.75;5034962;28;20737;-89
2021/10/20 11:59:37;;;;;;;3.47;1.17;;;;;;;22.20;43.04;96990.03;5038779;28;20033;-91
2021/10/20 12:02:03;;;;;;;3.83;1.35;;;;;;;22.20;42.91;96995.56;5030777;28;20033;-89
2021/10/20 12:04:30;;;;;;;3.47;1.83;;;;;;;22.03;42.86;96981.91;5026363;28;20026;-90
2021/10/20 12:06:59;;;;;;;6.38;1.85;;;;;;;22.19;43.28;96993.13;5044118;28;20112;-90
2021/10/20 12:09:25;;;;;;;3.92;1.23;;;;;;;21.81;43.61;96989.38;5044027;28;20025;-90
2021/10/20 12:11:54;;;;;;;3.20;1.50;;;;;;;21.84;44.02;96991.44;5042304;28;20215;-90
2021/10/20 12:14:22;;;;;;;2.90;1.35;;;;;;;21.66;44.50;96990.72;5045343;28;20025;-91
2021/10/20 12:16:49;;;;;;;2.60;1.38;;;;;;;21.35;45.40;96986.41;5045362;28;20040;-90
2021/10/20 12:19:15;;;;;;;2.83;1.60;;;;;;;21.27;45.32;97004.59;5026050;28;20417;-89
2021/10/20 12:21:42;;;;;;;3.53;1.75;;;;;;;20.98;46.51;97000.66;5036695;28;20033;-89
2021/10/20 12:24:08;;;;;;;6.45;2.20;;;;;;;20.92;46.94;97000.84;5044301;28;20012;-88
2021/10/20 12:26:36;;;;;;;8.75;2.10;;;;;;;20.81;47.34;97005.06;5061660;28;20184;-88
2021/10/20 12:29:04;;;;;;;3.63;1.70;;;;;;;20.59;48.11;97004.16;5062403;28;20028;-89
2021/10/20 12:31:29;;;;;;;5.05;2.17;;;;;;;20.35;48.04;96997.22;5039767;28;20444;-88
2021/10/20 12:33:55;;;;;;;3.63;2.17;;;;;;;20.20;48.57;97004.03;5055180;28;20060;-88
2021/10/20 12:36:26;;;;;;;6.05;2.20;;;;;;;20.11;49.03;97001.31;5062085;28;20074;-87
2021/10/20 12:38:52;;;;;;;4.22;2.22;;;;;;;20.04;48.92;97011.97;5057438;28;20077;-87
2021/10/20 12:41:27;;;;;;;3.75;1.77;;;;;;;19.97;49.08;96997.91;5062455;28;20041;-87
2021/10/20 12:43:55;;;;;;;4.25;2.15;;;;;;;19.91;49.29;96991.75;5036451;28;20039;-87
2021/10/20 12:46:21;;;;;;;4.15;2.45;;;;;;;19.82;50.16;96994.47;5048465;28;20033;-87
2021/10/20 12:48:49;;;;;;;4.35;2.05;;;;;;;19.71;50.14;96982.19;5027057;28;20091;-88
2021/10/20 12:51:20;;;;;;;4.78;2.05;;;;;;;19.67;50.31;96978.47;5025549;28;20091;-88
2021/10/20 12:53:47;;;;;;;3.20;1.80;;;;;;;19.59;50.34;96975.41;5025407;28;20258;-87
2021/10/20 12:56:13;;;;;;;3.92;2.22;;;;;;;19.58;50.48;96979.28;5033098;28;20025;-88
2021/10/20 12:58:39;;;;;;;3.50;1.80;;;;;;;19.50;50.62;96980.06;5028586;28;20023;-87
2021/10/20 13:01:08;;;;;;;5.55;2.80;;;;;;;19.52;51.18;96964.06;5030483;28;20024;-88
2021/10/20 13:03:34;;;;;;;3.60;1.88;;;;;;;19.44;51.59;96951.16;5032751;28;20025;-88
2021/10/20 13:06:00;;;;;;;2.92;1.73;;;;;;;19.50;51.29;96958.13;5046548;28;20055;-87
2021/10/20 13:08:26;;;;;;;5.40;2.00;;;;;;;19.47;51.98;96959.53;5049102;28;20096;-88
2021/10/20 13:10:53;;;;;;;3.40;1.83;;;;;;;19.49;51.70;96937.25;5032400;28;20028;-88
2021/10/20 13:13:20;;;;;;;8.43;3.42;;;;;;;19.66;50.39;96941.16;5025884;28;20021;-88
2021/10/20 13:15:45;;;;;;;3.42;1.80;;;;;;;19.97;50.67;96935.50;5010392;28;20482;-87
2021/10/20 13:18:14;;;;;;;2.72;1.63;;;;;;;20.21;49.79;96925.97;5021580;28;20040;-88
2021/10/20 13:20:40;;;;;;;5.25;2.13;;;;;;;20.06;50.23;96926.47;5046666;28;20045;-88
2021/10/20 13:23:08;;;;;;;5.25;1.92;;;;;;;20.15;49.28;96913.50;5028121;28;20037;-88
2021/10/20 13:25:38;;;;;;;3.35;1.73;;;;;;;20.32;49.00;96909.94;5032445;28;20083;-88
2021/10/20 13:28:07;;;;;;;3.38;1.90;;;;;;;20.54;49.08;96910.81;5031221;28;20065;-88
2021/10/20 13:30:37;;;;;;;2.85;1.42;;;;;;;20.28;49.57;96912.50;5043321;28;20026;-85
2021/10/20 13:33:04;;;;;;;4.93;1.90;;;;;;;20.10;49.67;96914.50;5051428;28;20035;-85
2021/10/20 13:35:31;;;;;;;11.43;6.38;;;;;;;20.01;49.70;96909.00;5055763;28;20012;-86
2021/10/20 13:37:58;;;;;;;5.93;2.00;;;;;;;20.18;49.04;96906.53;5060609;28;20021;-86
2021/10/20 13:40:24;;;;;;;5.38;2.22;;;;;;;20.36;49.11;96904.56;5062331;28;20324;-85
2021/10/20 13:42:49;;;;;;;5.15;2.03;;;;;;;20.39;49.32;96918.47;5066485;28;20334;-85
2021/10/20 13:45:17;;;;;;;5.28;1.90;;;;;;;20.31;49.54;96904.75;5050385;28;20038;-85
2021/10/20 13:47:42;;;;;;;4.70;1.90;;;;;;;20.44;49.50;96908.41;5067641;28;20013;-85
2021/10/20 13:50:08;;;;;;;4.00;1.80;;;;;;;20.52;49.48;96896.59;5054709;28;20028;-85
2021/10/20 13:52:34;;;;;;;3.33;2.00;;;;;;;20.51;49.15;96897.72;5070589;28;20004;-85
2021/10/20 13:54:59;;;;;;;2.92;1.40;;;;;;;20.56;48.50;96880.25;5065176;28;20030;-85
2021/10/20 13:57:25;;;;;;;4.15;1.90;;;;;;;20.55;49.50;96865.69;5070741;28;20056;-85
2021/10/20 13:59:51;;;;;;;4.93;1.92;;;;;;;20.41;49.67;96871.38;5069691;28;20035;-85
2021/10/20 14:02:17;;;;;;;3.72;1.67;;;;;;;20.24;49.43;96864.03;5065806;28;20017;-85
2021/10/20 14:04:42;;;;;;;4.20;1.73;;;;;;;20.09;49.43;96860.66;5057615;28;20086;-86
2021/10/20 14:07:08;;;;;;;3.50;1.75;;;;;;;20.10;50.63;96867.78;5032533;28;20025;-86
2021/10/20 14:09:35;;;;;;;2.95;1.63;;;;;;;20.10;49.93;96870.53;5023764;28;20109;-87
2021/10/20 14:12:00;;;;;;;5.95;1.60;;;;;;;20.04;50.03;96851.81;5023595;28;20018;-86
2021/10/20 14:14:26;;;;;;;4.32;1.90;;;;;;;20.07;51.38;96862.13;5031161;28;20055;-86
2021/10/20 14:16:51;;;;;;;4.55;1.80;;;;;;;19.97;50.71;96853.06;5044105;28;20017;-86
2021/10/20 14:19:17;;;;;;;6.75;1.90;;;;;;;19.92;50.72;96850.50;5041448;28;20082;-86
2021/10/20 14:21:43;;;;;;;3.30;1.70;;;;;;;19.94;51.04;96839.19;5031828;28;20064;-86
2021/10/20 14:24:08;;;;;;;4.65;1.70;;;;;;;19.97;50.96;96835.78;5044485;28;20024;-87
2021/10/20 14:26:34;;;;;;;3.78;1.83;;;;;;;19.85;51.54;96829.03;5034743;28;20026;-86
2021/10/20 14:28:59;;;;;;;3.33;1.88;;;;;;;19.82;51.71;96823.34;5024365;28;20057;-87
2021/10/20 14:31:25;;;;;;;9.07;3.22;;;;;;;19.75;51.71;96810.13;5030158;28;20025;-86
2021/10/20 14:33:51;;;;;;;8.02;4.82;;;;;;;19.74;51.64;96823.06;5040790;28;20393;-86
2021/10/20 14:36:17;;;;;;;4.25;1.60;;;;;;;19.66;51.57;96825.81;5038849;28;20029;-86
2021/10/20 14:38:42;;;;;;;4.35;2.15;;;;;;;19.70;51.75;96837.75;5037150;28;20383;-86
2021/10/20 14:41:11;;;;;;;10.27;2.30;;;;;;;19.67;51.78;96825.50;5019572;28;20032;-87
2021/10/20 14:43:37;;;;;;;5.40;2.05;;;;;;;19.72;52.06;96830.00;5024969;28;20026;-86
2021/10/20 14:46:02;;;;;;;4.05;1.70;;;;;;;19.74;51.92;96828.56;5027670;28;20029;-86
2021/10/20 14:48:28;;;;;;;5.18;2.05;;;;;;;19.76;51.98;96820.00;5024112;28;20410;-86
2021/10/20 14:50:53;;;;;;;4.10;1.80;;;;;;;19.67;52.29;96822.75;5055290;28;20025;-86
2021/10/20 14:53:18;;;;;;;8.40;1.67;;;;;;;19.74;51.89;96820.31;5044139;28;20040;-86
2021/10/20 14:55:44;;;;;;;2.65;1.60;;;;;;;19.68;51.92;96809.81;5028980;28;20541;-84
2021/10/20 14:58:09;;;;;;;6.85;2.08;;;;;;;19.69;52.45;96809.50;5032801;28;20033;-86
2021/10/20 15:00:35;;;;;;;4.35;1.73;;;;;;;19.55;52.58;96795.94;5042894;28;20029;-88
2021/10/20 15:03:00;;;;;;;5.10;2.22;;;;;;;19.57;52.34;96798.38;5037714;28;20032;-85
2021/10/20 15:05:27;;;;;;;5.13;1.75;;;;;;;19.54;52.33;96802.59;5039130;28;20029;-85
2021/10/20 15:07:55;;;;;;;9.02;6.60;;;;;;;19.54;52.54;96793.53;5020752;28;20478;-85
2021/10/20 15:10:21;;;;;;;3.65;1.90;;;;;;;19.47;52.92;96802.25;5023106;28;20443;-85
2021/10/20 15:12:46;;;;;;;5.25;2.83;;;;;;;19.41;53.00;96795.31;5014205;28;20120;-85
2021/10/20 15:15:12;;;;;;;6.63;3.10;;;;;;;19.39;53.44;96798.41;5023685;28;20349;-85
2021/10/20 15:17:39;;;;;;;3.58;2.10;;;;;;;19.43;52.75;96784.81;5036503;28;20116;-86
2021/10/20 15:20:09;;;;;;;4.93;2.00;;;;;;;19.33;53.41;96778.53;5036727;28;20421;-86
2021/10/20 15:22:35;;;;;;;4.10;2.42;;;;;;;19.35;53.74;96780.97;5031369;28;20712;-86
2021/10/20 15:25:04;;;;;;;4.45;2.13;;;;;;;19.27;54.11;96779.03;5045999;28;20072;-87
2021/10/20 15:27:30;;;;;;;3.75;1.88;;;;;;;19.20;54.42;96774.03;5031307;28;20029;-88
2021/10/20 15:29:56;;;;;;;3.47;1.98;;;;;;;19.19;54.13;96775.97;5034349;28;20565;-88
2021/10/20 15:32:22;;;;;;;3.92;2.00;;;;;;;19.17;54.53;96767.22;5010193;28;20029;-88
2021/10/20 15:34:47;;;;;;;3.75;2.05;;;;;;;19.13;54.41;96768.22;5025145;28;20032;-89
2021/10/20 15:37:12;;;;;;;5.60;2.20;;;;;;;19.10;54.06;96766.94;5044499;28;20032;-89
2021/10/20 15:39:39;;;;;;;3.35;1.90;;;;;;;19.08;54.30;96756.28;5023208;28;20029;-89
2021/10/20 15:42:05;;;;;;;4.03;2.10;;;;;;;19.04;54.94;96759.94;5022782;28;20025;-89
2021/10/20 15:44:30;;;;;;;5.38;2.05;;;;;;;19.01;54.82;96755.13;5015387;28;20180;-89
2021/10/20 15:46:56;;;;;;;4.72;2.45;;;;;;;18.92;55.08;96755.09;5042864;28;20068;-89
2021/10/20 15:49:22;;;;;;;4.57;2.40;;;;;;;18.84;55.12;96753.97;5046405;28;20024;-88
2021/10/20 15:51:48;;;;;;;5.22;2.63;;;;;;;18.68;55.96;96750.88;5029017;28;20035;-88
2021/10/20 15:54:14;;;;;;;3.88;2.30;;;;;;;18.64;55.99;96745.25;5041987;28;20028;-90
2021/10/20 15:56:40;;;;;;;5.28;2.20;;;;;;;18.62;56.02;96735.72;5032938;28;20072;-88
2021/10/20 15:59:05;;;;;;;4.38;2.03;;;;;;;18.57;56.27;96736.66;5030006;28;20053;-89
2021/10/20 16:01:31;;;;;;;4.93;2.70;;;;;;;18.51;56.19;96735.22;5008609;28;20032;-89
2021/10/20 16:03:57;;;;;;;4.05;2.13;;;;;;;18.29;57.26;96732.28;5035189;28;20029;-90
2021/10/20 16:06:22;;;;;;;8.77;4.03;;;;;;;18.30;57.05;96735.81;5023960;28;20064;-88
2021/10/20 16:08:47;;;;;;;6.05;2.60;;;;;;;18.27;57.52;96737.25;5022725;28;20028;-88
2021/10/20 16:11:15;;;;;;;4.80;2.70;;;;;;;18.15;57.79;96734.31;5013317;28;20023;-89